createdAt,value
2024-03-18T00:02:08.243Z,99637.75
2024-03-18T00:04:40.573Z,99642.19
2024-03-18T00:07:12.748Z,99642.19
2024-03-18T00:09:44.846Z,99641.33
2024-03-18T00:12:17.180Z,99641.33
2024-03-18T00:14:50.347Z,99640.46
2024-03-18T00:17:22.926Z,99640.55
2024-03-18T00:19:55.231Z,99636.11
2024-03-18T00:22:27.248Z,99643.06
2024-03-18T00:24:59.813Z,99646.48
2024-03-18T00:27:32.595Z,99636.11
2024-03-18T00:30:07.587Z,99636.11
2024-03-18T00:32:44.332Z,99643.16
2024-03-18T00:35:17.316Z,99645.77
2024-03-18T00:37:50.405Z,99643.21
2024-03-18T00:40:22.468Z,99643.27
2024-03-18T00:42:54.535Z,99644.95
2024-03-18T00:45:27.674Z,99642.34
2024-03-18T00:47:59.802Z,99648.47
2024-03-18T00:50:32.450Z,99647.56
2024-03-18T00:53:04.633Z,99651.13
2024-03-18T00:55:37.334Z,99648.58
2024-03-18T00:58:09.895Z,99652.16
2024-03-18T01:00:42.760Z,99644.44
2024-03-18T01:03:14.850Z,99650.56
2024-03-18T01:05:47.123Z,99652.45
2024-03-18T01:08:19.215Z,99654.24
2024-03-18T01:10:51.387Z,99656.91
2024-03-18T01:13:24.281Z,99653.42
2024-03-18T01:15:56.533Z,99656.95
2024-03-18T01:18:29.661Z,99664.91
2024-03-18T01:21:01.739Z,99658.11
2024-03-18T01:23:34.022Z,99667.72
2024-03-18T01:26:06.462Z,99662.55
2024-03-18T01:28:39.163Z,99666.08
2024-03-18T01:31:11.650Z,99667.88
2024-03-18T01:33:43.705Z,99667.92
2024-03-18T01:36:15.770Z,99668.83
2024-03-18T01:38:47.933Z,99660.20
2024-03-18T01:41:21.539Z,99669.84
2024-03-18T01:43:53.819Z,99664.69
2024-03-18T01:46:26.350Z,99668.17
2024-03-18T01:48:58.442Z,99669.08
2024-03-18T01:51:33.022Z,99667.44
2024-03-18T01:54:05.770Z,99670.95
2024-03-18T01:56:37.789Z,99672.75
2024-03-18T01:59:11.981Z,99675.41
2024-03-18T02:01:43.552Z,99684.12
2024-03-18T02:04:16.955Z,99680.81
2024-03-18T02:06:49.397Z,99674.48
2024-03-18T02:09:21.775Z,99677.96
2024-03-18T02:11:57.160Z,99682.34
2024-03-18T02:14:29.188Z,99675.36
2024-03-18T02:17:01.239Z,99678.83
2024-03-18T02:19:34.196Z,99681.42
2024-03-18T02:22:10.574Z,99682.29
2024-03-18T02:24:44.168Z,99686.59
2024-03-18T02:27:16.995Z,99691.70
2024-03-18T02:29:49.668Z,99686.53
2024-03-18T02:32:21.956Z,99684.77
2024-03-18T02:34:55.315Z,99693.48
2024-03-18T02:37:27.945Z,99697.00
2024-03-18T02:40:01.643Z,99689.14
2024-03-18T02:42:33.769Z,99692.62
2024-03-18T02:45:10.224Z,99698.70
2024-03-18T02:47:44.123Z,99693.54
2024-03-18T02:50:20.059Z,99694.45
2024-03-18T02:52:52.579Z,99690.98
2024-03-18T02:55:26.628Z,99703.17
2024-03-18T02:57:58.716Z,99698.02
2024-03-18T03:00:31.209Z,99701.53
2024-03-18T03:03:04.320Z,99701.58
2024-03-18T03:05:36.588Z,99704.13
2024-03-18T03:08:09.455Z,99702.36
2024-03-18T03:10:42.230Z,99698.92
2024-03-18T03:13:14.611Z,99698.97
2024-03-18T03:15:46.800Z,99702.45
2024-03-18T03:18:19.597Z,99704.23
2024-03-18T03:20:58.616Z,99712.95
2024-03-18T03:23:31.589Z,99705.14
2024-03-18T03:26:04.597Z,99717.30
2024-03-18T03:28:37.414Z,99713.00
2024-03-18T03:31:10.742Z,99718.16
2024-03-18T03:33:43.637Z,99708.70
2024-03-18T03:36:16.306Z,99719.13
2024-03-18T03:38:49.504Z,99720.86
2024-03-18T03:41:22.525Z,99721.77
2024-03-18T03:43:55.984Z,99720.91
2024-03-18T03:46:29.138Z,99723.47
2024-03-18T03:49:02.250Z,99724.25
2024-03-18T03:51:35.126Z,99725.98
2024-03-18T03:54:08.461Z,99722.51
2024-03-18T03:56:41.494Z,99726.02
2024-03-18T03:59:14.174Z,99731.19
2024-03-18T04:01:47.280Z,99731.19
2024-03-18T04:04:20.148Z,99733.70
2024-03-18T04:06:53.634Z,99735.38
2024-03-18T04:09:26.433Z,99736.22
2024-03-18T04:11:59.181Z,99745.62
2024-03-18T04:14:32.004Z,99748.13
2024-03-18T04:17:06.731Z,99745.38
2024-03-18T04:19:39.891Z,99750.41
2024-03-18T04:22:13.362Z,99750.30
2024-03-18T04:24:46.352Z,99753.64
2024-03-18T04:27:19.309Z,99750.89
2024-03-18T04:29:53.090Z,99762.09
2024-03-18T04:32:25.685Z,99758.47
2024-03-18T04:34:58.267Z,99763.48
2024-03-18T04:37:31.308Z,99766.77
2024-03-18T04:40:06.473Z,99763.05
2024-03-18T04:42:38.996Z,99767.16
2024-03-18T04:45:13.543Z,99767.92
2024-03-18T04:47:47.028Z,99770.30
2024-03-18T04:50:21.741Z,99769.45
2024-03-18T04:52:57.295Z,99773.19
2024-03-18T04:55:30.273Z,99765.20
2024-03-18T04:58:03.084Z,99769.45
2024-03-18T05:00:36.070Z,99767.52
2024-03-18T05:03:09.504Z,99777.79
2024-03-18T05:05:43.123Z,99778.45
2024-03-18T05:08:17.268Z,99769.61
2024-03-18T05:10:50.356Z,99768.58
2024-03-18T05:13:24.016Z,99771.09
2024-03-18T05:15:56.806Z,99777.89
2024-03-18T05:18:29.658Z,99782.14
2024-03-18T05:21:02.014Z,99776.81
2024-03-18T05:23:36.961Z,99782.75
2024-03-18T05:26:09.610Z,99775.64
2024-03-18T05:28:46.869Z,99771.22
2024-03-18T05:31:21.393Z,99789.39
2024-03-18T05:33:54.629Z,99785.80
2024-03-18T05:36:27.653Z,99788.21
2024-03-18T05:39:00.931Z,99790.55
2024-03-18T05:41:33.917Z,99792.18
2024-03-18T05:44:06.847Z,99798.18
2024-03-18T05:46:40.278Z,99798.06
2024-03-18T05:49:13.133Z,99802.31
2024-03-18T05:51:46.662Z,99808.20
2024-03-18T05:54:22.296Z,99803.78
2024-03-18T05:56:55.026Z,99811.41
2024-03-18T05:59:27.337Z,99808.74
2024-03-18T06:02:01.219Z,99810.37
2024-03-18T06:04:34.071Z,99810.32
2024-03-18T06:07:07.568Z,99811.13
2024-03-18T06:09:40.114Z,99806.82
2024-03-18T06:12:12.623Z,99805.30
2024-03-18T06:14:44.890Z,99812.77
2024-03-18T06:17:17.775Z,99821.52
2024-03-18T06:19:52.709Z,99816.23
2024-03-18T06:22:28.250Z,99819.63
2024-03-18T06:25:20.702Z,99825.62
2024-03-18T06:27:53.928Z,99826.37
2024-03-18T06:30:26.938Z,99828.77
2024-03-18T06:33:00.969Z,99827.83
2024-03-18T06:35:34.318Z,99832.91
2024-03-18T06:38:07.741Z,99833.50
2024-03-18T06:40:43.784Z,99830.66
2024-03-18T06:43:18.780Z,99841.77
2024-03-18T06:45:52.652Z,99838.05
2024-03-18T06:48:26.916Z,99840.48
2024-03-18T06:50:59.205Z,99838.64
2024-03-18T06:53:33.124Z,99839.41
2024-03-18T06:56:08.751Z,99840.27
2024-03-18T06:58:41.810Z,99842.77
2024-03-18T07:01:14.909Z,99845.17
2024-03-18T07:03:48.173Z,99843.17
2024-03-18T07:06:21.313Z,99849.05
2024-03-18T07:08:54.474Z,99853.18
2024-03-18T07:11:28.908Z,99839.98
2024-03-18T07:14:03.187Z,99846.78
2024-03-18T07:16:35.938Z,99848.28
2024-03-18T07:19:08.960Z,99852.34
2024-03-18T07:21:41.448Z,99852.28
2024-03-18T07:24:16.718Z,99856.59
2024-03-18T07:26:50.807Z,99847.82
2024-03-18T07:29:24.231Z,99852.92
2024-03-18T07:31:58.098Z,99868.34
2024-03-18T07:34:32.710Z,99862.00
2024-03-18T07:37:05.850Z,99863.63
2024-03-18T07:39:38.746Z,99867.75
2024-03-18T07:42:12.988Z,99875.34
2024-03-18T07:44:48.540Z,99873.37
2024-03-18T07:47:21.964Z,99867.77
2024-03-18T07:49:54.939Z,99866.46
2024-03-18T07:52:27.853Z,99866.03
2024-03-18T07:55:03.063Z,99869.16
2024-03-18T07:57:38.223Z,99865.17
2024-03-18T08:00:13.111Z,99864.11
2024-03-18T08:02:46.299Z,99863.05
2024-03-18T08:05:20.010Z,99871.77
2024-03-18T08:07:56.944Z,99866.30
2024-03-18T08:10:30.179Z,99873.09
2024-03-18T08:13:03.628Z,99877.99
2024-03-18T08:15:38.792Z,99873.44
2024-03-18T08:18:12.814Z,99874.79
2024-03-18T08:20:45.841Z,99877.66
2024-03-18T08:23:18.884Z,99882.38
2024-03-18T08:25:52.558Z,99885.62
2024-03-18T08:28:27.455Z,99881.71
2024-03-18T08:31:02.005Z,99883.11
2024-03-18T08:33:56.033Z,99887.07
2024-03-18T08:36:11.395Z,99882.36
2024-03-18T08:38:45.021Z,99886.46
2024-03-18T08:41:19.562Z,99889.80
2024-03-18T08:43:52.579Z,99885.16
2024-03-18T08:46:25.791Z,99885.48
2024-03-18T08:48:58.589Z,99886.01
2024-03-18T08:51:31.279Z,99888.01
2024-03-18T08:54:04.649Z,99886.06
2024-03-18T08:56:38.596Z,99891.91
2024-03-18T08:59:13.090Z,99892.84
2024-03-18T09:01:45.649Z,99886.59
2024-03-18T09:04:20.492Z,99895.78
2024-03-18T09:06:55.017Z,99895.44
2024-03-18T09:09:28.691Z,99890.97
2024-03-18T09:12:05.156Z,99899.45
2024-03-18T09:14:38.679Z,99894.80
2024-03-18T09:17:11.542Z,99900.72
2024-03-18T09:19:45.014Z,99904.73
2024-03-18T09:22:17.835Z,99906.19
2024-03-18T09:24:50.769Z,99906.70
2024-03-18T09:27:23.233Z,99901.97
2024-03-18T09:29:56.200Z,99911.62
2024-03-18T09:32:29.447Z,99908.16
2024-03-18T09:35:04.240Z,99916.98
2024-03-18T09:37:37.753Z,99920.78
2024-03-18T09:40:12.499Z,99916.70
2024-03-18T09:42:46.248Z,99924.55
2024-03-18T09:45:22.382Z,99926.02
2024-03-18T09:47:55.304Z,99931.69
2024-03-18T09:50:30.535Z,99938.03
2024-03-18T09:53:06.100Z,99936.94
2024-03-18T09:55:41.837Z,99938.02
2024-03-18T09:58:22.585Z,99937.56
2024-03-18T10:00:56.542Z,99935.34
2024-03-18T10:03:31.144Z,99935.70
2024-03-18T10:06:05.465Z,99941.36
2024-03-18T10:08:38.954Z,99938.41
2024-03-18T10:11:16.775Z,99947.53
2024-03-18T10:13:49.756Z,99948.61
2024-03-18T10:16:24.508Z,99936.78
2024-03-18T10:18:58.742Z,99934.78
2024-03-18T10:21:33.274Z,99939.41
2024-03-18T10:24:08.018Z,99942.17
2024-03-18T10:26:42.514Z,99948.93
2024-03-18T10:29:16.299Z,99950.44
2024-03-18T10:31:49.377Z,99954.49
2024-03-18T10:34:23.652Z,99950.74
2024-03-18T10:37:00.005Z,99961.91
2024-03-18T10:39:52.117Z,99954.79
2024-03-18T10:42:26.669Z,99959.00
2024-03-18T10:45:07.769Z,99961.26
2024-03-18T10:47:40.562Z,99957.47
2024-03-18T10:50:19.239Z,99963.02
2024-03-18T10:52:53.642Z,99970.28
2024-03-18T10:55:28.969Z,99972.06
2024-03-18T10:58:04.291Z,99962.42
2024-03-18T11:00:40.997Z,99956.72
2024-03-18T11:03:18.183Z,99963.27
2024-03-18T11:05:54.642Z,99966.53
2024-03-18T11:08:30.041Z,99968.75
2024-03-18T11:11:02.128Z,99970.62
2024-03-18T11:13:37.789Z,99974.12
2024-03-18T11:16:13.843Z,99974.75
2024-03-18T11:18:49.875Z,99971.05
2024-03-18T11:21:24.955Z,99983.72
2024-03-18T11:24:04.673Z,99974.50
2024-03-18T11:26:41.888Z,99984.52
2024-03-18T11:29:15.800Z,99978.98
2024-03-18T11:31:52.825Z,99980.41
2024-03-18T11:34:27.023Z,99976.69
2024-03-18T11:37:02.291Z,99977.48
2024-03-18T11:39:39.244Z,99977.27
2024-03-18T11:42:14.090Z,99980.48
2024-03-18T11:44:53.751Z,99983.49
2024-03-18T11:47:27.656Z,99983.09
2024-03-18T11:50:08.789Z,99982.48
2024-03-18T11:52:47.226Z,99982.73
2024-03-18T11:55:20.413Z,99978.00
2024-03-18T11:57:53.272Z,99977.78
2024-03-18T12:00:26.196Z,99982.89
2024-03-18T12:02:59.377Z,99977.58
2024-03-18T12:05:33.675Z,99983.02
2024-03-18T12:08:10.854Z,99987.69
2024-03-18T12:10:44.466Z,99985.62
2024-03-18T12:13:18.553Z,99987.85
2024-03-18T12:16:10.042Z,99990.05
2024-03-18T12:18:45.044Z,99993.91
2024-03-18T12:21:18.438Z,100001.30
2024-03-18T12:24:08.728Z,100002.41
2024-03-18T12:26:49.347Z,100000.00
2024-03-18T12:29:25.875Z,100003.66
2024-03-18T12:32:00.738Z,100005.63
2024-03-18T12:34:35.187Z,100000.75
2024-03-18T12:37:09.316Z,100003.70
2024-03-18T12:39:42.561Z,100005.78
2024-03-18T12:42:16.784Z,100003.48
2024-03-18T12:44:49.834Z,100000.06
2024-03-18T12:47:22.552Z,100003.61
2024-03-18T12:49:56.889Z,100007.09
2024-03-18T12:52:30.295Z,100003.61
2024-03-18T12:55:02.694Z,100007.80
2024-03-18T12:57:37.035Z,100006.05
2024-03-18T13:00:12.476Z,100008.57
2024-03-18T13:02:44.824Z,100008.45
2024-03-18T13:05:17.266Z,100008.34
2024-03-18T13:07:50.308Z,100007.36
2024-03-18T13:10:23.439Z,100012.48
2024-03-18T13:12:56.462Z,100010.84
2024-03-18T13:15:29.147Z,100014.23
2024-03-18T13:18:01.915Z,100011.61
2024-03-18T13:20:35.968Z,100010.03
2024-03-18T13:23:11.392Z,100012.70
2024-03-18T13:25:45.195Z,100015.53
2024-03-18T13:28:19.379Z,100013.20
2024-03-18T13:30:52.897Z,100014.33
2024-03-18T13:33:25.706Z,100015.45
2024-03-18T13:36:00.286Z,100013.98
2024-03-18T13:38:34.184Z,100018.55
2024-03-18T13:41:11.259Z,100013.42
2024-03-18T13:43:45.715Z,100017.99
2024-03-18T13:46:21.719Z,100017.88
2024-03-18T13:48:55.278Z,100018.60
2024-03-18T13:51:28.753Z,100018.55
2024-03-18T13:54:02.614Z,100017.45
2024-03-18T13:56:36.979Z,100019.04
2024-03-18T13:59:31.348Z,100014.53
2024-03-18T14:02:05.852Z,100023.93
2024-03-18T14:04:39.080Z,100017.61
2024-03-18T14:07:13.314Z,100024.48
2024-03-18T14:09:46.437Z,100014.78
2024-03-18T14:12:20.954Z,100021.92
2024-03-18T14:14:54.894Z,100025.57
2024-03-18T14:17:27.943Z,100024.80
2024-03-18T14:20:01.663Z,100024.01
2024-03-18T14:22:35.426Z,100023.34
2024-03-18T14:25:15.540Z,100021.83
2024-03-18T14:28:07.894Z,100034.18
2024-03-18T14:30:51.863Z,100029.17
2024-03-18T14:33:25.004Z,100026.86
2024-03-18T14:35:59.556Z,100020.05
2024-03-18T14:38:33.580Z,100025.39
2024-03-18T14:41:12.176Z,100043.83
2024-03-18T14:43:45.343Z,100037.88
2024-03-18T14:46:19.908Z,100040.51
2024-03-18T14:48:55.613Z,100041.73
2024-03-18T14:51:30.501Z,100040.30
2024-03-18T14:54:05.861Z,100042.23
2024-03-18T14:56:39.818Z,100039.78
2024-03-18T14:59:13.593Z,100046.94
2024-03-18T15:01:47.753Z,100054.88
2024-03-18T15:04:21.677Z,100051.64
2024-03-18T15:06:56.916Z,100047.48
2024-03-18T15:09:30.812Z,100049.47
2024-03-18T15:12:04.878Z,100053.09
2024-03-18T15:14:40.023Z,100060.20
2024-03-18T15:17:50.794Z,100058.65
2024-03-18T15:20:24.251Z,100057.00
2024-03-18T15:22:59.820Z,100060.57
2024-03-18T15:25:55.039Z,100052.05
2024-03-18T15:28:28.197Z,100059.94
2024-03-18T15:31:08.867Z,100065.20
2024-03-18T15:33:45.978Z,100059.20
2024-03-18T15:36:22.417Z,100070.56
2024-03-18T15:38:59.315Z,100063.75
2024-03-18T15:41:33.886Z,100072.48
2024-03-18T15:44:07.860Z,100071.75
2024-03-18T15:46:42.449Z,100084.75
2024-03-18T15:49:18.501Z,100083.15
2024-03-18T15:51:53.396Z,100083.20
2024-03-18T15:54:28.376Z,100079.72
2024-03-18T15:57:21.283Z,100088.46
2024-03-18T16:00:13.162Z,100093.68
2024-03-18T16:02:49.513Z,100090.16
2024-03-18T16:05:24.506Z,100094.64
2024-03-18T16:07:57.736Z,100096.43
2024-03-18T16:10:33.412Z,100100.05
2024-03-18T16:13:09.469Z,100108.78
2024-03-18T16:15:44.674Z,100103.66
2024-03-18T16:18:23.785Z,100106.27
2024-03-18T16:21:01.934Z,100102.86
2024-03-18T16:23:36.004Z,100110.69
2024-03-18T16:26:10.141Z,100106.43
2024-03-18T16:28:48.578Z,100113.39
2024-03-18T16:31:22.304Z,100106.48
2024-03-18T16:33:57.662Z,100113.44
2024-03-18T16:36:36.606Z,100114.34
2024-03-18T16:39:11.533Z,100109.17
2024-03-18T16:41:46.059Z,100117.86
2024-03-18T16:44:24.817Z,100121.43
2024-03-18T16:47:03.193Z,100124.87
2024-03-18T16:49:37.990Z,100126.64
2024-03-18T16:52:17.679Z,100131.86
2024-03-18T16:54:58.433Z,100123.17
2024-03-18T16:57:34.677Z,100129.30
2024-03-18T17:00:12.852Z,100128.43
2024-03-18T17:02:46.097Z,100139.73
2024-03-18T17:05:27.390Z,100138.30
2024-03-18T17:08:01.897Z,100139.78
2024-03-18T17:10:39.353Z,100142.47
2024-03-18T17:13:15.837Z,100150.34
2024-03-18T17:15:57.643Z,100152.11
2024-03-18T17:18:32.588Z,100159.07
2024-03-18T17:21:14.896Z,100153.06
2024-03-18T17:23:52.856Z,100155.72
2024-03-18T17:26:34.536Z,100156.63
2024-03-18T17:29:18.832Z,100157.58
2024-03-18T17:31:54.121Z,100163.63
2024-03-18T17:34:47.109Z,100163.67
2024-03-18T17:38:03.967Z,100168.05
2024-03-18T17:40:01.060Z,100167.19
2024-03-18T17:42:38.767Z,100168.13
2024-03-18T17:45:13.717Z,100167.31
2024-03-18T17:48:07.295Z,100169.13
2024-03-18T17:50:45.325Z,100171.77
2024-03-18T17:53:21.169Z,100180.50
2024-03-18T17:55:57.868Z,100182.25
2024-03-18T17:58:41.105Z,100183.16
2024-03-18T18:01:35.657Z,100189.27
2024-03-18T18:04:16.887Z,100184.94
2024-03-18T18:06:53.288Z,100183.23
2024-03-18T18:09:30.710Z,100199.83
2024-03-18T18:12:10.792Z,100191.14
2024-03-18T18:14:58.961Z,100192.05
2024-03-18T18:17:41.956Z,100193.86
2024-03-18T18:20:17.108Z,100200.85
2024-03-18T18:22:53.052Z,100193.94
2024-03-18T18:25:30.325Z,100193.07
2024-03-18T18:28:22.637Z,100201.84
2024-03-18T18:31:18.408Z,100198.44
2024-03-18T18:33:57.690Z,100200.25
2024-03-18T18:36:50.402Z,100209.02
2024-03-18T18:39:30.438Z,100207.40
2024-03-18T18:42:08.628Z,100212.72
2024-03-18T18:44:46.940Z,100211.93
2024-03-18T18:47:21.244Z,100217.18
2024-03-18T18:49:57.126Z,100211.17
2024-03-18T18:52:49.803Z,100222.50
2024-03-18T18:55:28.641Z,100226.88
2024-03-18T18:58:05.264Z,100217.36
2024-03-18T19:00:40.898Z,100229.56
2024-03-18T19:03:24.260Z,100229.64
2024-03-18T19:06:03.239Z,100223.56
2024-03-18T19:08:37.518Z,100240.09
2024-03-18T19:11:14.679Z,100234.02
2024-03-18T19:13:49.864Z,100237.53
2024-03-18T19:16:24.652Z,100243.64
2024-03-18T19:18:57.613Z,100240.20
2024-03-18T19:21:39.571Z,100242.02
2024-03-18T19:24:16.203Z,100240.31
2024-03-18T19:26:51.219Z,100235.21
2024-03-18T19:29:36.526Z,100243.06
2024-03-18T19:32:19.906Z,100240.49
2024-03-18T19:35:00.325Z,100245.20
2024-03-18T19:37:33.814Z,100244.73
2024-03-18T19:40:17.278Z,100243.89
2024-03-18T19:43:04.499Z,100239.66
2024-03-18T19:45:48.100Z,100240.53
2024-03-18T19:48:32.161Z,100251.85
2024-03-18T19:51:17.722Z,100255.42
2024-03-18T19:53:53.246Z,100258.91
2024-03-18T19:56:26.778Z,100264.98
2024-03-18T19:59:16.359Z,100259.73
2024-03-18T20:01:51.447Z,100258.06
2024-03-18T20:04:45.832Z,100261.54
2024-03-18T20:07:22.139Z,100251.16
2024-03-18T20:09:55.725Z,100265.05
2024-03-18T20:12:32.290Z,100266.82
2024-03-18T20:15:08.257Z,100268.52
2024-03-18T20:17:48.168Z,100264.22
2024-03-18T20:20:26.205Z,100269.42
2024-03-18T20:23:02.702Z,100272.89
2024-03-18T20:25:40.521Z,100261.61
2024-03-18T20:28:33.237Z,100278.94
2024-03-18T20:31:11.509Z,100277.23
2024-03-18T20:34:06.298Z,100277.30
2024-03-18T20:36:40.710Z,100278.17
2024-03-18T20:39:18.452Z,100284.31
2024-03-18T20:41:58.377Z,100279.11
2024-03-18T20:44:33.401Z,100277.41
2024-03-18T20:47:09.226Z,100278.23
2024-03-18T20:49:44.977Z,100277.41
2024-03-18T20:52:19.532Z,100280.01
2024-03-18T20:54:53.818Z,100284.34
2024-03-18T20:57:27.147Z,100283.48
2024-03-18T21:00:02.994Z,100284.38
2024-03-18T21:02:35.395Z,100297.41
2024-03-18T21:05:12.176Z,100285.28
2024-03-18T21:07:51.186Z,100283.55
2024-03-18T21:10:24.520Z,100285.25
2024-03-18T21:12:58.007Z,100279.20
2024-03-18T21:15:32.316Z,100279.20
2024-03-18T21:18:09.508Z,100290.55
2024-03-18T21:20:45.642Z,100288.86
2024-03-18T21:23:21.812Z,100299.23
2024-03-18T21:26:03.026Z,100284.45
2024-03-18T21:28:46.705Z,100293.16
2024-03-18T21:31:19.758Z,100295.77
2024-03-18T21:33:53.199Z,100289.76
2024-03-18T21:36:26.746Z,100299.30
2024-03-18T21:39:01.053Z,100294.16
2024-03-18T21:41:34.153Z,100295.06
2024-03-18T21:44:10.089Z,100293.36
2024-03-18T21:46:57.000Z,100297.70
2024-03-18T21:49:46.887Z,100296.03
2024-03-18T21:52:19.535Z,100295.22
2024-03-18T21:54:54.756Z,100302.17
2024-03-18T21:57:27.460Z,100296.09
2024-03-18T22:00:00.230Z,100299.59
2024-03-18T22:02:32.814Z,100299.62
2024-03-18T22:05:05.895Z,100307.44
2024-03-18T22:07:39.680Z,100304.84
2024-03-18T22:10:12.170Z,100302.23
2024-03-18T22:12:47.435Z,100308.34
2024-03-18T22:15:19.747Z,100302.33
2024-03-18T22:17:53.227Z,100305.80
2024-03-18T22:20:28.182Z,100308.43
2024-03-18T22:23:10.703Z,100303.30
2024-03-18T22:25:44.929Z,100308.43
2024-03-18T22:28:18.223Z,100314.51
2024-03-18T22:30:53.722Z,100306.73
2024-03-18T22:33:27.629Z,100306.76
2024-03-18T22:36:00.767Z,100304.13
2024-03-18T22:38:34.857Z,100311.10
2024-03-18T22:41:08.292Z,100312.87
2024-03-18T22:43:42.498Z,100313.77
2024-03-18T22:46:16.986Z,100310.30
2024-03-18T22:48:51.039Z,100308.59
2024-03-18T22:51:23.638Z,100310.32
2024-03-18T22:53:57.096Z,100311.19
2024-03-18T22:56:29.459Z,100317.30
2024-03-18T22:59:03.370Z,100308.63
2024-03-18T23:01:36.707Z,100311.23
2024-03-18T23:04:17.696Z,100308.63
2024-03-18T23:06:51.240Z,100317.30
2024-03-18T23:09:23.695Z,100309.52
2024-03-18T23:11:56.785Z,100310.42
2024-03-18T23:14:30.786Z,100313.89
2024-03-18T23:17:03.593Z,100316.48
2024-03-18T23:19:36.795Z,100317.39
2024-03-18T23:22:09.461Z,100320.05
2024-03-18T23:24:41.998Z,100317.55
2024-03-18T23:27:16.013Z,100315.00
2024-03-18T23:29:50.818Z,100316.77
2024-03-18T23:32:23.574Z,100321.16
2024-03-18T23:34:55.822Z,100327.30
2024-03-18T23:37:28.191Z,100323.02
2024-03-18T23:40:01.236Z,100326.55
2024-03-18T23:42:35.959Z,100323.13
2024-03-18T23:45:08.923Z,100317.96
2024-03-18T23:47:42.394Z,100326.69
2024-03-18T23:50:15.828Z,100317.19
2024-03-18T23:52:47.710Z,100321.10
2024-03-18T23:55:21.463Z,100318.88
2024-03-18T23:57:55.474Z,100322.41
